This demonstration page uses our WeatherBlox Daily Observations layout. Learn more.

Left ArrowRight Arrow

39.92423, -83.80882

Hourly Observations for April 17, 2021

Temp ( °F °C ) Dew Point ( °F °C ) Humidity (%) Winds ( mph kmh ) Pressure ( in mb ) Visibility ( mi km ) Precip ( " mm )
12:56 am 00:56 Clear 46 7.8 38 3.3 73 73 N 6 9 29.91 1013 10 16.0934 0 0
1:56 am 01:56 Clear 45 7.2 38 3.3 77 77 NNW 5 7 29.9 1013 10 16.0934 0 0
2:56 am 02:56 Clear 41 5 37 2.8 86 86 Calm 29.89 1012 10 16.0934 0 0
3:56 am 03:56 Clear 40 4.4 37 2.8 89 89 Calm 29.89 1012 10 16.0934 0 0
4:56 am 04:56 Clear 38 3.3 37 2.8 97 97 W 5 7 29.89 1012 10 16.0934 0 0
5:56 am 05:56 Clear 38 3.3 37 2.8 97 97 Calm 29.89 1012 10 16.0934 0 0
6:56 am 06:56 Sunny 37 2.8 37 2.8 100 100 Calm 29.89 1012 10 16.0934 0 0
7:56 am 07:56 Sunny 41 5 40 4.4 96 96 Calm 29.91 1013 10 16.0934 0 0
8:56 am 08:56 Sunny 42 5.6 41 5 96 96 Calm 29.91 1013 10 16.0934 0 0
9:56 am 09:56 Sunny 46 7.8 42 5.6 86 86 NNW 3 6 29.91 1013 10 16.0934 0 0
10:56 am 10:56 Sunny 51 10.6 43 6.1 74 74 WSW 3 6 29.91 1013 10 16.0934 0 0
11:56 am 11:56 Mostly Sunny 54 12.2 42 5.6 64 64 W 9 15 29.9 1013 10 16.0934 0 0
12:56 pm 12:56 Cloudy 54 12.2 43 6.1 67 67 W 7 11 29.9 1013 10 16.0934 0 0
1:56 pm 13:56 Partly Cloudy 56 13.3 41 5 57 57 WNW 12 19 29.9 1012 10 16.0934 0 0
2:56 pm 14:56 Mostly Cloudy 58 14.4 40 4.4 51 51 NW 6 9 29.9 1012 10 16.0934 0 0
3:56 pm 15:56 Cloudy 56 13.3 38 3.3 51 51 W 13 20 29.89 1012 10 16.0934 0 0
4:56 pm 16:56 Cloudy with Light Rain 56 13.3 40 4.4 55 55 W 10 17 29.89 1012 10 16.0934 0 0
5:56 pm 17:56 Cloudy 56 13.3 36 2.2 47 47 NW 5 7 29.89 1012 10 16.0934 0 0
6:56 pm 18:56 Mostly Cloudy 54 12.2 41 5 62 62 SW 10 17 29.89 1012 10 16.0934 0 0
7:56 pm 19:56 Sunny 52 11.1 42 5.6 69 69 SSW 7 11 29.9 1012 10 16.0934 0 0
8:56 pm 20:56 Partly Cloudy 47 8.3 42 5.6 83 83 SW 6 9 29.91 1013 10 16.0934 0 0
9:56 pm 21:56 Clear 46 7.8 42 5.6 86 86 SW 6 9 29.93 1014 10 16.0934 0 0
10:56 pm 22:56 Clear 42 5.6 41 5 96 96 ESE 5 7 29.93 1014 10 16.0934 0 0
11:56 pm 23:56 Clear 40 4.4 40 4.4 100 100 ESE 5 7 29.93 1014 10 16.0934 0 0

Powered by AerisWeather